Terminal Aerodrome Forecast
Issued by NWS Caribou, ME

Home | Current Version | Previous Version | Text Only | Print | Product List | Glossary On
Versions: 1 2 3 4 5 6 7 8 9 10 11 12 13 14 15 16 17 18 19 20 21 22
517
FTUS41 KCAR 110526 AAB
TAFCAR
TAF AMD
KCAR 110526Z 1105/1206 34004KT 3SM -SHSN OVC025
     FM110900 34005KT P6SM VCSH OVC028
     FM111500 34005KT P6SM VCSH OVC025
     FM111800 34006KT P6SM VCSH OVC020=

USA.gov is the U.S. government's official web portal to all federal, state and local government web resources and services.